createdAt,value
2018-10-16T00:00:31.628Z,12.00
2018-10-16T00:02:59.704Z,12.00
2018-10-16T00:05:27.643Z,12.00
2018-10-16T00:07:55.609Z,12.00
2018-10-16T00:10:29.038Z,12.00
2018-10-16T00:12:56.984Z,12.00
2018-10-16T00:15:24.963Z,11.90
2018-10-16T00:17:52.892Z,11.90
2018-10-16T00:20:20.839Z,11.90
2018-10-16T00:22:48.820Z,11.80
2018-10-16T00:25:17.993Z,11.70
2018-10-16T00:27:46.199Z,11.70
2018-10-16T00:30:14.275Z,11.70
2018-10-16T00:32:42.568Z,11.70
2018-10-16T00:35:10.900Z,11.70
2018-10-16T00:37:38.908Z,11.60
2018-10-16T00:40:07.424Z,11.60
2018-10-16T00:42:35.386Z,11.50
2018-10-16T00:45:03.431Z,11.60
2018-10-16T00:47:31.390Z,11.60
2018-10-16T00:49:59.348Z,11.60
2018-10-16T00:52:27.310Z,11.60
2018-10-16T00:54:55.254Z,11.60
2018-10-16T00:57:23.194Z,11.60
2018-10-16T00:59:51.256Z,11.60
2018-10-16T01:02:19.208Z,11.60
2018-10-16T01:04:47.135Z,11.60
2018-10-16T01:07:15.355Z,11.70
2018-10-16T01:09:43.310Z,11.70
2018-10-16T01:12:12.881Z,11.70
2018-10-16T01:14:42.084Z,11.70
2018-10-16T01:17:10.086Z,11.70
2018-10-16T01:19:38.076Z,11.70
2018-10-16T01:22:06.021Z,11.70
2018-10-16T01:24:34.037Z,11.70
2018-10-16T01:27:01.970Z,11.70
2018-10-16T01:29:29.943Z,11.70
2018-10-16T01:31:57.863Z,11.80
2018-10-16T01:34:25.828Z,11.80
2018-10-16T01:36:53.758Z,11.90
2018-10-16T01:39:21.745Z,11.90
2018-10-16T01:41:49.746Z,11.90
2018-10-16T01:44:17.680Z,11.90
2018-10-16T01:46:45.633Z,11.90
2018-10-16T01:49:13.552Z,11.90
2018-10-16T01:51:41.546Z,11.90
2018-10-16T01:54:09.548Z,11.90
2018-10-16T01:56:37.518Z,11.90
2018-10-16T01:59:05.573Z,11.90
2018-10-16T02:01:33.642Z,12.00
2018-10-16T02:04:01.652Z,12.00
2018-10-16T02:06:29.600Z,12.00
2018-10-16T02:08:57.630Z,12.00
2018-10-16T02:11:25.631Z,12.00
2018-10-16T02:13:53.647Z,12.00
2018-10-16T02:16:21.768Z,12.00
2018-10-16T02:18:49.746Z,12.00
2018-10-16T02:21:17.787Z,12.00
2018-10-16T02:23:45.754Z,12.00
2018-10-16T02:26:13.769Z,12.00
2018-10-16T02:28:41.789Z,12.00
2018-10-16T02:31:09.789Z,12.00
2018-10-16T02:33:37.837Z,12.10
2018-10-16T02:36:05.814Z,12.10
2018-10-16T02:38:33.837Z,12.10
2018-10-16T02:41:01.816Z,12.10
2018-10-16T02:43:29.795Z,12.10
2018-10-16T02:45:57.813Z,12.00
2018-10-16T02:48:25.827Z,12.10
2018-10-16T02:50:53.823Z,12.10
2018-10-16T02:53:21.953Z,12.10
2018-10-16T02:55:49.901Z,12.20
2018-10-16T02:58:17.934Z,12.20
2018-10-16T03:00:45.931Z,12.20
2018-10-16T03:03:13.947Z,12.20
2018-10-16T03:05:41.945Z,12.20
2018-10-16T03:08:09.952Z,12.30
2018-10-16T03:10:37.959Z,12.30
2018-10-16T03:13:05.927Z,12.40
2018-10-16T03:15:33.942Z,12.40
2018-10-16T03:18:01.916Z,12.40
2018-10-16T03:20:29.958Z,12.40
2018-10-16T03:22:58.165Z,12.50
2018-10-16T03:25:26.170Z,12.50
2018-10-16T03:27:54.160Z,12.50
2018-10-16T03:30:22.208Z,12.50
2018-10-16T03:32:50.253Z,12.50
2018-10-16T03:35:18.291Z,12.50
2018-10-16T03:37:46.324Z,12.50
2018-10-16T03:40:14.362Z,12.50
2018-10-16T03:42:42.914Z,12.50
2018-10-16T03:45:12.229Z,12.40
2018-10-16T03:47:40.701Z,12.40
2018-10-16T03:50:09.243Z,12.50
2018-10-16T03:52:37.433Z,12.50
2018-10-16T03:55:05.763Z,12.60
2018-10-16T03:57:33.760Z,12.60
2018-10-16T04:00:01.729Z,12.70
2018-10-16T04:02:30.092Z,12.70
2018-10-16T04:04:58.041Z,12.80
2018-10-16T04:07:26.115Z,12.90
2018-10-16T04:09:54.055Z,12.90
2018-10-16T04:12:22.010Z,12.90
2018-10-16T04:14:50.015Z,12.80
2018-10-16T04:17:18.012Z,12.80
2018-10-16T04:19:45.984Z,12.80
2018-10-16T04:22:14.004Z,12.80
2018-10-16T04:24:41.956Z,12.80
2018-10-16T04:27:09.916Z,12.80
2018-10-16T04:29:37.893Z,12.80
2018-10-16T04:32:05.987Z,12.80
2018-10-16T04:34:34.025Z,12.80
2018-10-16T04:37:01.982Z,12.80
2018-10-16T04:39:29.950Z,12.80
2018-10-16T04:41:57.928Z,12.90
2018-10-16T04:44:25.913Z,12.90
2018-10-16T04:46:53.896Z,12.90
2018-10-16T04:49:21.878Z,12.90
2018-10-16T04:51:49.871Z,12.90
2018-10-16T04:54:17.821Z,12.80
2018-10-16T04:56:46.155Z,12.90
2018-10-16T04:59:14.117Z,12.90
2018-10-16T05:01:42.166Z,12.90
2018-10-16T05:04:10.194Z,12.90
2018-10-16T05:06:38.174Z,12.90
2018-10-16T05:09:07.516Z,12.90
2018-10-16T05:11:39.811Z,12.80
2018-10-16T05:14:07.777Z,12.80
2018-10-16T05:16:35.755Z,12.80
2018-10-16T05:19:03.845Z,12.70
2018-10-16T05:21:31.862Z,12.70
2018-10-16T05:23:59.889Z,12.70
2018-10-16T05:26:28.282Z,12.70
2018-10-16T05:28:56.240Z,12.70
2018-10-16T05:31:24.413Z,12.70
2018-10-16T05:33:52.307Z,12.70
2018-10-16T05:36:20.299Z,12.70
2018-10-16T05:38:48.252Z,12.80
2018-10-16T05:41:16.289Z,12.80
2018-10-16T05:43:44.248Z,12.80
2018-10-16T05:46:12.199Z,12.80
2018-10-16T05:48:40.193Z,12.80
2018-10-16T05:51:08.185Z,12.80
2018-10-16T05:53:36.154Z,12.80
2018-10-16T05:56:05.439Z,12.80
2018-10-16T05:58:33.746Z,12.80
2018-10-16T06:01:01.702Z,12.80
2018-10-16T06:03:29.749Z,12.80
2018-10-16T06:05:57.714Z,12.80
2018-10-16T06:08:25.672Z,12.80
2018-10-16T06:10:53.813Z,12.80
2018-10-16T06:13:21.794Z,12.80
2018-10-16T06:15:49.794Z,12.80
2018-10-16T06:18:17.772Z,12.80
2018-10-16T06:20:45.773Z,12.80
2018-10-16T06:23:13.709Z,12.90
2018-10-16T06:25:41.718Z,12.90
2018-10-16T06:28:12.940Z,13.00
2018-10-16T06:30:40.960Z,13.10
2018-10-16T06:33:09.244Z,13.20
2018-10-16T06:35:37.273Z,13.20
2018-10-16T06:38:05.547Z,13.40
2018-10-16T06:40:33.645Z,13.50
2018-10-16T06:43:01.705Z,13.60
2018-10-16T06:45:29.699Z,13.80
2018-10-16T06:47:57.822Z,13.90
2018-10-16T06:50:25.674Z,14.00
2018-10-16T06:52:53.716Z,14.10
2018-10-16T06:55:21.731Z,14.10
2018-10-16T06:57:49.676Z,14.20
2018-10-16T07:00:17.727Z,14.20
2018-10-16T07:02:45.687Z,14.30
2018-10-16T07:05:13.660Z,14.30
2018-10-16T07:07:41.665Z,14.40
2018-10-16T07:10:10.116Z,14.40
2018-10-16T07:12:38.191Z,14.40
2018-10-16T07:15:06.481Z,14.40
2018-10-16T07:17:34.456Z,14.50
2018-10-16T07:20:02.735Z,14.50
2018-10-16T07:22:31.031Z,14.50
2018-10-16T07:24:59.012Z,14.50
2018-10-16T07:27:26.970Z,14.60
2018-10-16T07:29:54.959Z,14.60
2018-10-16T07:32:23.363Z,14.60
2018-10-16T07:34:51.395Z,14.60
2018-10-16T07:37:19.373Z,14.60
2018-10-16T07:39:47.378Z,14.70
2018-10-16T07:42:15.403Z,14.70
2018-10-16T07:44:43.346Z,14.70
2018-10-16T07:47:11.390Z,14.80
2018-10-16T07:49:39.343Z,14.80
2018-10-16T07:52:07.354Z,14.80
2018-10-16T07:54:35.341Z,14.90
2018-10-16T07:57:03.442Z,14.90
2018-10-16T07:59:31.404Z,14.90
2018-10-16T08:01:59.375Z,15.00
2018-10-16T08:04:27.408Z,15.00
2018-10-16T08:06:55.359Z,15.00
2018-10-16T08:09:23.354Z,15.10
2018-10-16T08:11:51.411Z,15.10
2018-10-16T08:14:20.517Z,15.10
2018-10-16T08:16:49.654Z,15.10
2018-10-16T08:19:17.662Z,15.10
2018-10-16T08:21:46.369Z,15.20
2018-10-16T08:24:14.480Z,15.20
2018-10-16T08:26:42.504Z,15.20
2018-10-16T08:29:10.479Z,15.30
2018-10-16T08:31:38.751Z,15.30
2018-10-16T08:34:06.914Z,15.40
2018-10-16T08:36:35.240Z,15.50
2018-10-16T08:39:14.817Z,15.50
2018-10-16T08:42:16.387Z,15.60
2018-10-16T08:45:16.303Z,15.70
2018-10-16T08:47:49.893Z,15.80
2018-10-16T08:50:23.261Z,15.80
2018-10-16T08:52:51.250Z,15.80
2018-10-16T08:55:19.212Z,15.80
2018-10-16T08:57:47.213Z,15.90
2018-10-16T09:00:15.253Z,15.90
2018-10-16T09:02:43.267Z,15.90
2018-10-16T09:05:11.209Z,15.90
2018-10-16T09:07:39.179Z,15.80
2018-10-16T09:10:07.266Z,15.80
2018-10-16T09:12:35.248Z,15.80
2018-10-16T09:15:03.236Z,15.80
2018-10-16T09:17:31.237Z,15.90
2018-10-16T09:19:59.182Z,15.90
2018-10-16T09:22:27.163Z,15.90
2018-10-16T09:24:55.101Z,15.90
2018-10-16T09:27:23.081Z,15.90
2018-10-16T09:29:51.089Z,16.00
2018-10-16T09:32:18.996Z,16.00
2018-10-16T09:34:46.984Z,16.10
2018-10-16T09:37:15.065Z,16.20
2018-10-16T09:39:43.167Z,16.20
2018-10-16T09:42:11.136Z,16.30
2018-10-16T09:44:39.397Z,16.40
2018-10-16T09:47:07.377Z,16.60
2018-10-16T09:49:35.420Z,16.70
2018-10-16T09:52:03.370Z,16.80
2018-10-16T09:54:31.324Z,16.90
2018-10-16T09:56:59.333Z,17.00
2018-10-16T09:59:27.443Z,17.10
2018-10-16T10:01:56.222Z,17.30
2018-10-16T10:04:24.393Z,17.40
2018-10-16T10:06:52.369Z,17.50
2018-10-16T10:09:20.313Z,17.60
2018-10-16T10:11:48.346Z,17.70
2018-10-16T10:14:16.370Z,17.80
2018-10-16T10:16:44.357Z,17.90
2018-10-16T10:19:12.337Z,18.00
2018-10-16T10:21:40.313Z,18.00
2018-10-16T10:24:08.313Z,18.10
2018-10-16T10:26:36.319Z,18.10
2018-10-16T10:29:04.325Z,18.30
2018-10-16T10:31:32.325Z,18.30
2018-10-16T10:34:00.288Z,18.40
2018-10-16T10:36:28.290Z,18.30
2018-10-16T10:38:56.263Z,18.40
2018-10-16T10:41:24.230Z,18.40
2018-10-16T10:43:52.211Z,18.50
2018-10-16T10:46:20.148Z,18.50
2018-10-16T10:48:48.154Z,18.70
2018-10-16T10:51:16.413Z,18.80
2018-10-16T10:53:44.106Z,19.00
2018-10-16T10:56:12.062Z,19.20
2018-10-16T10:58:40.067Z,19.20
2018-10-16T11:01:08.056Z,19.30
2018-10-16T11:03:36.217Z,19.40
2018-10-16T11:06:04.077Z,19.40
2018-10-16T11:08:32.063Z,19.40
2018-10-16T11:11:00.087Z,19.50
2018-10-16T11:13:28.033Z,19.60
2018-10-16T11:15:56.049Z,19.70
2018-10-16T11:18:24.034Z,19.80
2018-10-16T11:20:52.054Z,19.80
2018-10-16T11:23:20.031Z,20.10
2018-10-16T11:25:50.164Z,20.40
2018-10-16T11:28:18.166Z,20.70
2018-10-16T11:30:46.177Z,21.00
2018-10-16T11:33:14.192Z,21.20
2018-10-16T11:35:42.106Z,21.20
2018-10-16T11:38:10.140Z,21.20
2018-10-16T11:40:38.108Z,21.20
2018-10-16T11:43:06.133Z,21.10
2018-10-16T11:45:34.187Z,21.00
2018-10-16T11:48:02.168Z,20.80
2018-10-16T11:50:30.146Z,20.50
2018-10-16T11:52:58.087Z,20.20
2018-10-16T11:55:26.064Z,20.10
2018-10-16T11:57:54.002Z,20.00
2018-10-16T12:00:24.500Z,19.90
2018-10-16T12:02:52.780Z,19.90
2018-10-16T12:05:20.775Z,19.90
2018-10-16T12:07:48.739Z,19.80
2018-10-16T12:10:16.740Z,19.70
2018-10-16T12:12:44.712Z,19.70
2018-10-16T12:15:12.705Z,19.70
2018-10-16T12:17:50.019Z,19.70
2018-10-16T12:20:21.975Z,19.60
2018-10-16T12:22:49.960Z,19.60
2018-10-16T12:25:18.162Z,19.60
2018-10-16T12:27:46.088Z,19.60
2018-10-16T12:30:14.057Z,19.60
2018-10-16T12:32:42.062Z,19.60
2018-10-16T12:35:10.035Z,19.70
2018-10-16T12:37:38.072Z,19.70
2018-10-16T12:40:06.268Z,19.80
2018-10-16T12:42:34.309Z,20.00
2018-10-16T12:45:02.393Z,20.20
2018-10-16T12:47:30.349Z,20.30
2018-10-16T12:49:58.358Z,20.30
2018-10-16T12:52:26.332Z,20.40
2018-10-16T12:54:54.299Z,20.50
2018-10-16T12:57:22.406Z,20.50
2018-10-16T12:59:50.326Z,20.60
2018-10-16T13:02:18.338Z,20.60
2018-10-16T13:04:46.346Z,20.60
2018-10-16T13:07:19.618Z,20.60
2018-10-16T13:09:47.574Z,20.60
2018-10-16T13:12:15.576Z,20.60
2018-10-16T13:14:43.522Z,20.70
2018-10-16T13:17:11.544Z,20.70
2018-10-16T13:19:39.543Z,20.80
2018-10-16T13:22:07.604Z,20.80
2018-10-16T13:24:35.599Z,21.00
2018-10-16T13:27:03.554Z,21.30
2018-10-16T13:29:31.719Z,21.60
2018-10-16T13:31:59.564Z,21.90
2018-10-16T13:34:27.556Z,22.20
2018-10-16T13:36:55.655Z,22.20
2018-10-16T13:39:23.634Z,22.30
2018-10-16T13:41:51.609Z,22.10
2018-10-16T13:44:19.690Z,22.00
2018-10-16T13:46:47.680Z,21.80
2018-10-16T13:49:15.658Z,21.50
2018-10-16T13:51:43.633Z,21.40
2018-10-16T13:54:11.573Z,21.40
2018-10-16T13:56:39.556Z,21.30
2018-10-16T13:59:07.518Z,21.20
2018-10-16T14:01:35.505Z,21.20
2018-10-16T14:04:03.511Z,21.10
2018-10-16T14:06:31.511Z,21.00
2018-10-16T14:08:59.448Z,20.90
2018-10-16T14:11:27.438Z,20.80
2018-10-16T14:13:55.472Z,20.70
2018-10-16T14:16:23.471Z,20.60
2018-10-16T14:18:51.472Z,20.50
2018-10-16T14:21:19.481Z,20.40
2018-10-16T14:23:47.454Z,20.40
2018-10-16T14:26:15.509Z,20.30
2018-10-16T14:28:43.438Z,20.20
2018-10-16T14:31:11.393Z,20.10
2018-10-16T14:33:39.411Z,20.00
2018-10-16T14:36:07.374Z,20.00
2018-10-16T14:38:35.389Z,20.00
2018-10-16T14:41:03.365Z,20.00
2018-10-16T14:43:31.427Z,20.00
2018-10-16T14:45:59.541Z,19.90
2018-10-16T14:48:27.526Z,19.90
2018-10-16T14:50:55.521Z,19.90
2018-10-16T14:53:23.532Z,19.90
2018-10-16T14:55:51.559Z,19.80
2018-10-16T14:58:19.558Z,19.80
2018-10-16T15:00:47.576Z,19.70
2018-10-16T15:03:15.581Z,19.70
2018-10-16T15:05:43.549Z,19.60
2018-10-16T15:08:11.632Z,19.50
2018-10-16T15:10:39.542Z,19.40
2018-10-16T15:13:07.583Z,19.30
2018-10-16T15:15:35.545Z,19.20
2018-10-16T15:18:03.521Z,19.20
2018-10-16T15:20:31.592Z,19.10
2018-10-16T15:22:59.596Z,19.00
2018-10-16T15:25:27.584Z,18.90
2018-10-16T15:27:55.624Z,18.90
2018-10-16T15:30:23.553Z,18.90
2018-10-16T15:32:51.513Z,18.80
2018-10-16T15:35:20.582Z,18.80
2018-10-16T15:37:48.657Z,18.80
2018-10-16T15:40:16.700Z,18.70
2018-10-16T15:42:44.716Z,18.80
2018-10-16T15:45:13.150Z,18.90
2018-10-16T15:47:41.814Z,18.90
2018-10-16T15:50:10.590Z,18.90
2018-10-16T15:52:38.896Z,18.80
2018-10-16T15:55:07.245Z,19.00
2018-10-16T15:57:35.273Z,19.40
2018-10-16T16:00:03.354Z,19.70
2018-10-16T16:02:31.392Z,20.10
2018-10-16T16:04:59.329Z,20.40
2018-10-16T16:07:27.254Z,20.50
2018-10-16T16:09:55.294Z,20.50
2018-10-16T16:12:23.288Z,20.30
2018-10-16T16:14:51.590Z,20.00
2018-10-16T16:17:19.588Z,19.70
2018-10-16T16:19:47.619Z,19.40
2018-10-16T16:22:16.755Z,19.10
2018-10-16T16:24:45.002Z,18.90
2018-10-16T16:27:13.869Z,18.70
2018-10-16T16:29:42.091Z,18.50
2018-10-16T16:32:10.139Z,18.40
2018-10-16T16:34:42.859Z,18.30
2018-10-16T16:37:10.818Z,18.20
2018-10-16T16:39:38.886Z,18.10
2018-10-16T16:42:06.872Z,17.90
2018-10-16T16:44:34.891Z,17.80
2018-10-16T16:47:03.185Z,17.70
2018-10-16T16:49:31.215Z,17.70
2018-10-16T16:51:59.273Z,17.60
2018-10-16T16:54:27.265Z,17.50
2018-10-16T16:56:55.236Z,17.50
2018-10-16T16:59:25.046Z,17.40
2018-10-16T17:01:53.038Z,17.40
2018-10-16T17:04:21.047Z,17.30
2018-10-16T17:06:49.080Z,17.20
2018-10-16T17:09:17.045Z,17.20
2018-10-16T17:11:45.021Z,17.20
2018-10-16T17:14:13.037Z,17.10
2018-10-16T17:16:40.953Z,17.10
2018-10-16T17:19:09.103Z,17.10
2018-10-16T17:21:37.128Z,17.10
2018-10-16T17:24:05.444Z,17.00
2018-10-16T17:26:33.580Z,17.00
2018-10-16T17:29:01.810Z,17.00
2018-10-16T17:31:29.770Z,16.90
2018-10-16T17:33:57.822Z,16.90
2018-10-16T17:36:25.807Z,16.90
2018-10-16T17:38:53.783Z,16.90
2018-10-16T17:41:21.850Z,16.80
2018-10-16T17:43:49.855Z,16.70
2018-10-16T17:46:17.872Z,16.70
2018-10-16T17:48:45.870Z,16.70
2018-10-16T17:51:13.943Z,16.60
2018-10-16T17:53:41.954Z,16.60
2018-10-16T17:56:10.025Z,16.60
2018-10-16T17:58:38.052Z,16.60
2018-10-16T18:01:06.359Z,16.50
2018-10-16T18:03:34.376Z,16.50
2018-10-16T18:06:02.337Z,16.50
2018-10-16T18:08:30.307Z,16.50
2018-10-16T18:10:59.214Z,16.40
2018-10-16T18:13:27.295Z,16.40
2018-10-16T18:15:55.217Z,16.40
2018-10-16T18:18:23.264Z,16.40
2018-10-16T18:20:51.317Z,16.40
2018-10-16T18:23:19.274Z,16.40
2018-10-16T18:25:52.393Z,16.30
2018-10-16T18:28:20.374Z,16.30
2018-10-16T18:30:48.403Z,16.30
2018-10-16T18:33:16.481Z,16.30
2018-10-16T18:35:44.393Z,16.30
2018-10-16T18:38:13.107Z,16.20
2018-10-16T18:40:41.111Z,16.20
2018-10-16T18:43:09.132Z,16.20
2018-10-16T18:45:37.178Z,16.10
2018-10-16T18:48:05.225Z,16.10
2018-10-16T18:50:33.318Z,16.10
2018-10-16T18:53:01.495Z,16.00
2018-10-16T18:55:29.493Z,16.00
2018-10-16T18:57:57.832Z,16.00
2018-10-16T19:00:25.953Z,15.90
2018-10-16T19:02:54.039Z,15.90
2018-10-16T19:05:22.115Z,15.90
2018-10-16T19:07:50.231Z,15.90
2018-10-16T19:10:18.201Z,15.90
2018-10-16T19:12:46.219Z,15.80
2018-10-16T19:15:15.463Z,15.80
2018-10-16T19:17:44.294Z,15.80
2018-10-16T19:20:13.332Z,15.70
2018-10-16T19:22:42.065Z,15.70
2018-10-16T19:25:11.018Z,15.70
2018-10-16T19:27:39.094Z,15.60
2018-10-16T19:30:07.953Z,15.50
2018-10-16T19:32:36.121Z,15.50
2018-10-16T19:35:04.495Z,15.40
2018-10-16T19:37:32.705Z,15.40
2018-10-16T19:40:00.738Z,15.40
2018-10-16T19:42:28.835Z,15.40
2018-10-16T19:45:01.531Z,15.40
2018-10-16T19:47:29.463Z,15.40
2018-10-16T19:49:57.443Z,15.30
2018-10-16T19:52:25.430Z,15.30
2018-10-16T19:54:53.380Z,15.20
2018-10-16T19:57:21.797Z,15.20
2018-10-16T19:59:49.873Z,15.20
2018-10-16T20:02:17.831Z,15.20
2018-10-16T20:04:45.817Z,15.20
2018-10-16T20:07:13.894Z,15.20
2018-10-16T20:09:41.915Z,15.10
2018-10-16T20:12:09.876Z,15.00
2018-10-16T20:14:38.299Z,14.90
2018-10-16T20:17:06.362Z,14.80
2018-10-16T20:19:34.393Z,14.70
2018-10-16T20:22:02.476Z,14.70
2018-10-16T20:24:30.433Z,14.70
2018-10-16T20:26:58.420Z,14.60
2018-10-16T20:29:27.328Z,14.60
2018-10-16T20:31:55.431Z,14.50
2018-10-16T20:34:23.375Z,14.40
2018-10-16T20:36:51.410Z,14.40
2018-10-16T20:39:19.446Z,14.30
2018-10-16T20:41:47.498Z,14.20
2018-10-16T20:44:15.568Z,14.20
2018-10-16T20:46:43.529Z,14.20
2018-10-16T20:49:11.561Z,14.20
2018-10-16T20:51:39.573Z,14.20
2018-10-16T20:54:07.768Z,14.20
2018-10-16T20:56:35.843Z,14.20
2018-10-16T20:59:03.852Z,14.20
2018-10-16T21:01:31.841Z,14.20
2018-10-16T21:04:00.140Z,14.10
2018-10-16T21:06:28.213Z,14.10
2018-10-16T21:08:56.136Z,14.00
2018-10-16T21:11:24.101Z,14.00
2018-10-16T21:13:52.097Z,14.00
2018-10-16T21:16:20.185Z,14.00
2018-10-16T21:18:48.156Z,14.00
2018-10-16T21:21:16.144Z,13.90
2018-10-16T21:23:44.133Z,13.90
2018-10-16T21:26:12.416Z,13.80
2018-10-16T21:28:40.429Z,13.80
2018-10-16T21:31:08.512Z,13.70
2018-10-16T21:33:36.436Z,13.70
2018-10-16T21:36:04.442Z,13.60
2018-10-16T21:38:32.429Z,13.60
2018-10-16T21:41:00.476Z,13.50
2018-10-16T21:43:28.405Z,13.40
2018-10-16T21:45:56.409Z,13.40
2018-10-16T21:48:24.501Z,13.30
2018-10-16T21:50:52.496Z,13.30
2018-10-16T21:53:20.447Z,13.20
2018-10-16T21:55:48.479Z,13.20
2018-10-16T21:58:16.425Z,13.20
2018-10-16T22:00:49.711Z,13.10
2018-10-16T22:03:17.673Z,13.10
2018-10-16T22:05:45.657Z,13.10
2018-10-16T22:08:13.684Z,13.10
2018-10-16T22:10:41.644Z,13.00
2018-10-16T22:13:10.135Z,13.00
2018-10-16T22:15:38.134Z,13.00
2018-10-16T22:18:06.156Z,12.90
2018-10-16T22:20:34.186Z,12.90
2018-10-16T22:23:02.199Z,12.90
2018-10-16T22:25:30.169Z,12.90
2018-10-16T22:27:58.131Z,12.90
2018-10-16T22:30:26.173Z,13.00
2018-10-16T22:32:54.104Z,13.00
2018-10-16T22:35:22.060Z,13.00
2018-10-16T22:37:50.077Z,13.00
2018-10-16T22:40:18.153Z,13.00
2018-10-16T22:42:46.132Z,12.90
2018-10-16T22:45:14.069Z,12.90
2018-10-16T22:47:42.045Z,12.90
2018-10-16T22:50:11.209Z,12.80
2018-10-16T22:52:39.219Z,12.80
2018-10-16T22:55:07.547Z,12.70
2018-10-16T22:57:35.476Z,12.70
2018-10-16T23:00:03.556Z,12.60
2018-10-16T23:02:31.568Z,12.50
2018-10-16T23:05:06.503Z,12.40
2018-10-16T23:07:34.482Z,12.40
2018-10-16T23:10:02.449Z,12.30
2018-10-16T23:12:30.485Z,12.30
2018-10-16T23:14:58.435Z,12.20
2018-10-16T23:17:26.389Z,12.20
2018-10-16T23:19:54.338Z,12.10
2018-10-16T23:22:22.336Z,12.10
2018-10-16T23:24:50.247Z,12.10
2018-10-16T23:27:18.220Z,12.00
2018-10-16T23:29:46.189Z,12.00
2018-10-16T23:32:14.232Z,12.00
2018-10-16T23:34:42.249Z,12.00
2018-10-16T23:37:10.289Z,12.00
2018-10-16T23:39:38.313Z,12.00
2018-10-16T23:42:06.290Z,11.90
2018-10-16T23:44:34.316Z,11.90
2018-10-16T23:47:02.757Z,12.00
2018-10-16T23:49:30.702Z,11.90
2018-10-16T23:51:58.711Z,11.90
2018-10-16T23:54:26.780Z,11.90
2018-10-16T23:56:54.714Z,11.80
2018-10-16T23:59:22.689Z,11.70
